Weather at Beverley Airport

Public forecast

Using degrees Celsius for public forecast. Weather courtesy of forecast.io.

Closest aviation weather report (METAR) to Beverley Airport

Closest report is Leigh Creek Airport, 63.6 nm (117.8 km) WSW. Retrieved 2021/06/15 13:00 UTC (53 minutes ago):

YLEC 151300Z AUTO 18004KT 9999 // OVC090 11/06 Q1014

Closest aviation forecast (TAF) to Beverley Airport

Closest forecast is Woomera Airfield, 152.8 nm (282.9 km) WSW. Retrieved 2021/06/15 12:00 UTC (2 hours ago):

TAF YPWR 151112Z 1512/1606 31012KT CAVOK FM160000 30018KT 9999 SCT030 FM160300 26016G29KT 9999 SCT030